createdAt,value
2018-08-11T00:00:05.445Z,32.5
2018-08-11T00:02:05.107Z,32.6
2018-08-11T00:04:10.377Z,32.7
2018-08-11T00:06:05.087Z,32.7
2018-08-11T00:08:05.746Z,32.7
2018-08-11T00:10:06.012Z,32.7
2018-08-11T00:12:08.281Z,32.5
2018-08-11T00:14:05.969Z,32.5
2018-08-11T00:16:05.626Z,32.6
2018-08-11T00:18:05.539Z,32.6
2018-08-11T00:20:05.975Z,32.7
2018-08-11T00:22:05.794Z,32.6
2018-08-11T00:24:05.004Z,32.6
2018-08-11T00:26:07.783Z,32.6
2018-08-11T00:28:05.489Z,32.6
2018-08-11T00:30:05.207Z,32.7
2018-08-11T00:32:06.008Z,32.8
2018-08-11T00:34:05.311Z,32.8
2018-08-11T00:36:05.954Z,32.8
2018-08-11T00:38:05.606Z,32.8
2018-08-11T00:40:05.320Z,32.9
2018-08-11T00:42:05.639Z,32.9
2018-08-11T00:44:05.372Z,32.8
2018-08-11T00:46:05.090Z,32.9
2018-08-11T00:48:05.090Z,33
2018-08-11T00:50:05.798Z,33
2018-08-11T00:52:05.494Z,33.1
2018-08-11T00:54:05.326Z,33.2
2018-08-11T00:56:05.075Z,33.2
2018-08-11T00:58:05.748Z,33.3
2018-08-11T01:00:05.403Z,33.4
2018-08-11T01:02:05.658Z,33.5
2018-08-11T01:04:05.849Z,33.7
2018-08-11T01:06:05.143Z,33.8
2018-08-11T01:08:05.955Z,34
2018-08-11T01:10:05.892Z,34
2018-08-11T01:12:07.664Z,34.2
2018-08-11T01:14:07.922Z,34.5
2018-08-11T01:16:05.179Z,34.3
2018-08-11T01:18:07.622Z,34.8
2018-08-11T01:20:07.899Z,34.7
2018-08-11T01:22:05.714Z,34.8
2018-08-11T01:24:05.464Z,34.9
2018-08-11T01:26:07.732Z,35.3
2018-08-11T01:28:05.443Z,35.1
2018-08-11T01:30:05.138Z,35.5
2018-08-11T01:32:10.414Z,35.8
2018-08-11T01:34:05.118Z,35.8
2018-08-11T01:36:05.782Z,35.7
2018-08-11T01:38:08.003Z,36
2018-08-11T01:40:10.765Z,36.1
2018-08-11T01:42:05.525Z,36.2
2018-08-11T01:44:05.781Z,36.3
2018-08-11T01:46:07.718Z,36.5
2018-08-11T01:48:05.919Z,36.5
2018-08-11T01:50:05.588Z,36.6
2018-08-11T01:52:05.248Z,36.7
2018-08-11T01:54:05.885Z,36.8
2018-08-11T01:56:08.095Z,36.6
2018-08-11T01:58:05.369Z,36.6
2018-08-11T02:00:10.095Z,36.7
2018-08-11T02:02:05.853Z,36.7
2018-08-11T02:04:08.076Z,36.7
2018-08-11T02:06:05.814Z,36.7
2018-08-11T02:08:05.714Z,36.7
2018-08-11T02:10:05.407Z,36.8
2018-08-11T02:12:05.116Z,36.9
2018-08-11T02:14:05.287Z,36.9
2018-08-11T02:16:05.959Z,36.9
2018-08-11T02:18:05.837Z,36.6
2018-08-11T02:20:05.544Z,36.7
2018-08-11T02:22:07.818Z,36.7
2018-08-11T02:24:05.555Z,36.7
2018-08-11T02:26:07.774Z,36.7
2018-08-11T02:28:10.534Z,36.7
2018-08-11T02:30:05.244Z,36.7
2018-08-11T02:32:05.942Z,36.7
2018-08-11T02:34:05.601Z,36.7
2018-08-11T02:36:05.309Z,36.7
2018-08-11T02:38:05.533Z,36.7
2018-08-11T02:40:05.433Z,36.8
2018-08-11T02:42:05.135Z,36.8
2018-08-11T02:44:05.817Z,36.8
2018-08-11T02:46:05.518Z,36.8
2018-08-11T02:48:07.701Z,36.9
2018-08-11T02:50:08.044Z,36.9
2018-08-11T02:52:05.707Z,36.9
2018-08-11T02:54:13.537Z,36.9
2018-08-11T02:56:05.311Z,37
2018-08-11T02:58:05.004Z,37
2018-08-11T03:00:08.192Z,37
2018-08-11T03:02:08.471Z,37
2018-08-11T03:04:05.703Z,37.1
2018-08-11T03:06:05.483Z,37.1
2018-08-11T03:08:05.264Z,36.8
2018-08-11T03:10:06.325Z,36.9
2018-08-11T03:12:05.048Z,36.9
2018-08-11T03:14:08.615Z,37
2018-08-11T03:16:05.801Z,37
2018-08-11T03:18:05.714Z,37
2018-08-11T03:20:05.403Z,37.1
2018-08-11T03:22:10.154Z,37.1
2018-08-11T03:24:05.847Z,37.1
2018-08-11T03:26:10.590Z,37.2
2018-08-11T03:28:05.866Z,37.2
2018-08-11T03:30:05.584Z,37.2
2018-08-11T03:32:05.821Z,37.2
2018-08-11T03:34:05.495Z,37.2
2018-08-11T03:36:07.739Z,37.3
2018-08-11T03:38:07.919Z,37.3
2018-08-11T03:40:05.611Z,37.3
2018-08-11T03:42:05.351Z,37.4
2018-08-11T03:44:07.617Z,37.3
2018-08-11T03:46:05.519Z,37.4
2018-08-11T03:48:08.104Z,37.4
2018-08-11T03:50:05.851Z,37.4
2018-08-11T03:52:05.137Z,37.4
2018-08-11T03:54:05.837Z,37.4
2018-08-11T03:56:05.629Z,37.4
2018-08-11T03:58:05.401Z,37.3
2018-08-11T04:00:05.106Z,37.2
2018-08-11T04:02:08.379Z,37.4
2018-08-11T04:04:05.114Z,37.3
2018-08-11T04:06:05.780Z,37.2
2018-08-11T04:08:07.989Z,37.3
2018-08-11T04:10:08.249Z,37.2
2018-08-11T04:12:05.933Z,37.2
2018-08-11T04:14:05.645Z,37.2
2018-08-11T04:16:05.346Z,37.3
2018-08-11T04:18:05.221Z,37.3
2018-08-11T04:20:05.413Z,37.2
2018-08-11T04:22:05.095Z,37.3
2018-08-11T04:24:05.779Z,37.3
2018-08-11T04:26:05.496Z,37.4
2018-08-11T04:28:05.213Z,37.4
2018-08-11T04:30:05.875Z,37.3
2018-08-11T04:32:08.170Z,37.3
2018-08-11T04:34:05.822Z,37.3
2018-08-11T04:36:05.075Z,37.2
2018-08-11T04:38:05.766Z,37.4
2018-08-11T04:40:11.469Z,37.5
2018-08-11T04:42:08.312Z,37.5
2018-08-11T04:44:07.687Z,37.4
2018-08-11T04:46:07.934Z,37.2
2018-08-11T04:48:08.205Z,37.4
2018-08-11T04:50:05.909Z,37.5
2018-08-11T04:52:05.627Z,37.3
2018-08-11T04:54:05.338Z,37.5
2018-08-11T04:56:05.094Z,37.3
2018-08-11T04:58:05.937Z,37.6
2018-08-11T05:00:05.627Z,37.5
2018-08-11T05:02:07.877Z,37.5
2018-08-11T05:04:08.159Z,37.5
2018-08-11T05:06:05.364Z,37.5
2018-08-11T05:08:05.048Z,37.5
2018-08-11T05:10:05.239Z,37.4
2018-08-11T05:12:05.913Z,37.4
2018-08-11T05:14:08.137Z,37.5
2018-08-11T05:16:07.907Z,37.5
2018-08-11T05:18:05.380Z,37.5
2018-08-11T05:20:12.705Z,37.5
2018-08-11T05:22:07.940Z,37.4
2018-08-11T05:24:05.583Z,37.5
2018-08-11T05:26:05.303Z,37.5
2018-08-11T05:28:05.062Z,37.4
2018-08-11T05:30:05.781Z,37.5
2018-08-11T05:32:05.483Z,37.5
2018-08-11T05:34:07.801Z,37.6
2018-08-11T05:36:05.494Z,37.6
2018-08-11T05:38:05.723Z,37.5
2018-08-11T05:40:07.971Z,37.6
2018-08-11T05:42:05.650Z,37.6
2018-08-11T05:44:05.348Z,37.5
2018-08-11T05:46:10.591Z,37.5
2018-08-11T05:48:07.831Z,37.5
2018-08-11T05:50:08.081Z,37.5
2018-08-11T05:52:05.764Z,37.5
2018-08-11T05:54:05.434Z,37.5
2018-08-11T05:56:05.178Z,37.4
2018-08-11T05:58:10.978Z,37.5
2018-08-11T06:00:10.692Z,37.4
2018-08-11T06:02:05.372Z,37.4
2018-08-11T06:04:05.274Z,37.6
2018-08-11T06:06:05.270Z,37.4
2018-08-11T06:08:06.023Z,37.4
2018-08-11T06:10:08.199Z,37.5
2018-08-11T06:12:10.971Z,37.5
2018-08-11T06:14:05.671Z,37.5
2018-08-11T06:16:05.363Z,37.5
2018-08-11T06:18:06.795Z,37.5
2018-08-11T06:20:05.504Z,37.6
2018-08-11T06:22:05.220Z,37.6
2018-08-11T06:24:05.974Z,37.6
2018-08-11T06:26:05.760Z,37.5
2018-08-11T06:28:06.446Z,37.6
2018-08-11T06:30:05.126Z,37.6
2018-08-11T06:32:05.949Z,37.6
2018-08-11T06:34:05.775Z,37.6
2018-08-11T06:36:10.687Z,37.5
2018-08-11T06:38:05.456Z,37.5
2018-08-11T06:40:05.188Z,37.6
2018-08-11T06:42:05.947Z,37.6
2018-08-11T06:44:05.678Z,37.5
2018-08-11T06:46:07.898Z,37.5
2018-08-11T06:48:05.610Z,37.4
2018-08-11T06:50:07.827Z,37.6
2018-08-11T06:52:07.574Z,37.6
2018-08-11T06:54:05.270Z,37.5
2018-08-11T06:56:05.929Z,37.4
2018-08-11T06:58:05.596Z,37.6
2018-08-11T07:00:05.340Z,37.5
2018-08-11T07:02:05.063Z,37.3
2018-08-11T07:04:06.042Z,37.3
2018-08-11T07:06:05.104Z,37.4
2018-08-11T07:08:05.798Z,37.1
2018-08-11T07:10:05.452Z,37.2
2018-08-11T07:12:05.153Z,37.2
2018-08-11T07:14:07.901Z,37
2018-08-11T07:16:05.597Z,37
2018-08-11T07:18:05.069Z,36.9
2018-08-11T07:20:05.808Z,37
2018-08-11T07:22:07.969Z,37
2018-08-11T07:24:05.658Z,36.9
2018-08-11T07:26:05.375Z,37.1
2018-08-11T07:28:05.081Z,37
2018-08-11T07:30:05.936Z,36.8
2018-08-11T07:32:05.809Z,36.7
2018-08-11T07:34:05.574Z,36.7
2018-08-11T07:36:05.374Z,36.6
2018-08-11T07:38:05.476Z,36.5
2018-08-11T07:40:05.314Z,36.4
2018-08-11T07:42:05.141Z,36.5
2018-08-11T07:44:05.476Z,36.3
2018-08-11T07:46:05.205Z,36.3
2018-08-11T07:48:06.938Z,36.2
2018-08-11T07:50:05.692Z,36.1
2018-08-11T07:52:07.894Z,36.1
2018-08-11T07:54:08.138Z,36.3
2018-08-11T07:56:06.039Z,36.2
2018-08-11T07:58:08.392Z,36.1
2018-08-11T08:00:05.040Z,36.1
2018-08-11T08:02:05.755Z,35.9
2018-08-11T08:04:05.423Z,36.1
2018-08-11T08:06:07.686Z,35.9
2018-08-11T08:08:05.633Z,35.9
2018-08-11T08:10:05.698Z,35.6
2018-08-11T08:12:08.088Z,35.5
2018-08-11T08:14:05.776Z,35.4
2018-08-11T08:16:05.488Z,35.4
2018-08-11T08:18:05.445Z,35.3
2018-08-11T08:20:05.247Z,35.2
2018-08-11T08:22:10.238Z,34.9
2018-08-11T08:24:05.928Z,34.8
2018-08-11T08:26:05.334Z,35
2018-08-11T08:28:05.254Z,35
2018-08-11T08:30:05.942Z,34.9
2018-08-11T08:32:05.175Z,34.8
2018-08-11T08:34:05.706Z,34.7
2018-08-11T08:36:05.900Z,34.8
2018-08-11T08:38:08.221Z,34.6
2018-08-11T08:40:08.624Z,34.6
2018-08-11T08:42:05.688Z,34.6
2018-08-11T08:44:08.461Z,34.4
2018-08-11T08:46:05.643Z,34.4
2018-08-11T08:48:05.332Z,34.3
2018-08-11T08:50:05.109Z,34.3
2018-08-11T08:52:05.329Z,34.2
2018-08-11T08:54:05.060Z,34
2018-08-11T08:56:05.821Z,34.1
2018-08-11T08:58:15.736Z,34.2
2018-08-11T09:00:10.654Z,34.2
2018-08-11T09:02:08.956Z,34.2
2018-08-11T09:04:09.287Z,33.8
2018-08-11T09:06:05.645Z,33.9
2018-08-11T09:08:05.983Z,33.9
2018-08-11T09:10:10.802Z,34
2018-08-11T09:12:05.673Z,34
2018-08-11T09:14:05.535Z,34
2018-08-11T09:16:10.274Z,33.6
2018-08-11T09:18:05.153Z,33.6
2018-08-11T09:20:05.843Z,33.7
2018-08-11T09:22:05.495Z,33.7
2018-08-11T09:24:07.676Z,33.5
2018-08-11T09:26:05.335Z,33.5
2018-08-11T09:28:05.056Z,33.5
2018-08-11T09:30:05.746Z,33.6
2018-08-11T09:32:05.546Z,33.6
2018-08-11T09:34:05.828Z,33.5
2018-08-11T09:36:05.506Z,33.2
2018-08-11T09:38:07.661Z,33.4
2018-08-11T09:40:06.692Z,33.4
2018-08-11T09:42:05.479Z,33.4
2018-08-11T09:44:12.769Z,33.1
2018-08-11T09:46:06.225Z,33.1
2018-08-11T09:48:15.904Z,33
2018-08-11T09:50:10.799Z,33.2
2018-08-11T09:52:05.915Z,33.2
2018-08-11T09:54:05.167Z,33.2
2018-08-11T09:56:05.190Z,33.1
2018-08-11T09:58:05.829Z,33
2018-08-11T10:00:05.804Z,32.9
2018-08-11T10:02:05.835Z,32.8
2018-08-11T10:04:08.578Z,33
2018-08-11T10:06:08.393Z,33
2018-08-11T10:08:08.159Z,32.6
2018-08-11T10:10:05.858Z,32.7
2018-08-11T10:12:06.045Z,32.8
2018-08-11T10:14:08.573Z,32.6
2018-08-11T10:16:05.445Z,32.6
2018-08-11T10:18:05.859Z,32.4
2018-08-11T10:20:08.271Z,32.3
2018-08-11T10:22:10.129Z,32.4
2018-08-11T10:24:06.172Z,32.3
2018-08-11T10:26:07.927Z,32.3
2018-08-11T10:28:05.684Z,32.1
2018-08-11T10:30:05.892Z,32.1
2018-08-11T10:32:08.234Z,32.2
2018-08-11T10:34:07.582Z,32.1
2018-08-11T10:36:05.392Z,32.1
2018-08-11T10:38:05.216Z,32
2018-08-11T10:40:08.697Z,32
2018-08-11T10:42:05.624Z,31.9
2018-08-11T10:44:08.091Z,31.5
2018-08-11T10:46:07.686Z,31.4
2018-08-11T10:48:05.193Z,31.4
2018-08-11T10:50:08.648Z,31.5
2018-08-11T10:52:08.317Z,31.4
2018-08-11T10:54:05.488Z,31.4
2018-08-11T10:56:05.655Z,31.3
2018-08-11T10:58:05.823Z,31.2
2018-08-11T11:00:05.666Z,31.1
2018-08-11T11:02:06.173Z,31.1
2018-08-11T11:04:06.082Z,31
2018-08-11T11:06:06.032Z,30.8
2018-08-11T11:08:05.432Z,30.8
2018-08-11T11:10:07.993Z,30.6
2018-08-11T11:12:05.958Z,30.6
2018-08-11T11:14:05.957Z,30.6
2018-08-11T11:16:06.520Z,30.6
2018-08-11T11:18:05.786Z,30.6
2018-08-11T11:20:05.821Z,30.7
2018-08-11T11:22:08.396Z,30.7
2018-08-11T11:24:05.671Z,30.7
2018-08-11T11:26:05.671Z,30.7
2018-08-11T11:28:05.692Z,30.8
2018-08-11T11:30:05.903Z,30.7
2018-08-11T11:32:05.698Z,30.7
2018-08-11T11:34:05.790Z,30.8
2018-08-11T11:36:05.953Z,30.7
2018-08-11T11:38:11.141Z,30.6
2018-08-11T11:40:06.285Z,30.7
2018-08-11T11:42:06.046Z,30.9
2018-08-11T11:44:06.385Z,30.7
2018-08-11T11:46:05.276Z,30.9
2018-08-11T11:48:05.407Z,30.9
2018-08-11T11:50:05.479Z,30.8
2018-08-11T11:52:17.925Z,30.9
2018-08-11T11:54:07.754Z,30.9
2018-08-11T11:56:05.499Z,30.9
2018-08-11T11:58:05.208Z,31
2018-08-11T12:00:05.982Z,30.8
2018-08-11T12:02:08.458Z,30.8
2018-08-11T12:04:05.432Z,30.8
2018-08-11T12:06:05.686Z,30.8
2018-08-11T12:08:06.207Z,30.8
2018-08-11T12:10:06.012Z,30.9
2018-08-11T12:12:06.115Z,30.9
2018-08-11T12:14:05.531Z,30.8
2018-08-11T12:16:05.685Z,30.8
2018-08-11T12:18:05.721Z,30.5
2018-08-11T12:20:05.425Z,30.6
2018-08-11T12:22:05.107Z,30.7
2018-08-11T12:24:05.906Z,30.7
2018-08-11T12:26:05.212Z,30.6
2018-08-11T12:28:05.926Z,30.6
2018-08-11T12:30:05.597Z,30.5
2018-08-11T12:32:05.283Z,30.5
2018-08-11T12:34:05.024Z,30.5
2018-08-11T12:36:05.946Z,30.5
2018-08-11T12:38:05.709Z,30.4
2018-08-11T12:40:08.439Z,30.6
2018-08-11T12:42:05.144Z,30.6
2018-08-11T12:44:10.928Z,30.7
2018-08-11T12:46:05.638Z,30.6
2018-08-11T12:48:05.337Z,30.5
2018-08-11T12:50:05.017Z,30.5
2018-08-11T12:52:08.312Z,30.5
2018-08-11T12:54:10.177Z,30.4
2018-08-11T12:56:13.452Z,30.5
2018-08-11T12:58:05.138Z,30.5
2018-08-11T13:00:05.310Z,30.5
2018-08-11T13:02:05.969Z,30.4
2018-08-11T13:04:05.641Z,30.5
2018-08-11T13:06:05.345Z,30.4
2018-08-11T13:08:05.058Z,30.4
2018-08-11T13:10:05.713Z,30.4
2018-08-11T13:12:05.454Z,30.4
2018-08-11T13:14:10.219Z,30.3
2018-08-11T13:16:07.961Z,30.3
2018-08-11T13:18:05.861Z,30.3
2018-08-11T13:20:08.154Z,30.2
2018-08-11T13:22:05.857Z,30.2
2018-08-11T13:24:05.555Z,30.5
2018-08-11T13:26:05.274Z,30.4
2018-08-11T13:28:05.956Z,30.4
2018-08-11T13:30:05.663Z,30.4
2018-08-11T13:32:10.463Z,30.2
2018-08-11T13:34:10.181Z,30.3
2018-08-11T13:36:05.885Z,30.3
2018-08-11T13:38:05.580Z,30.5
2018-08-11T13:40:05.269Z,30.4
2018-08-11T13:42:06.026Z,30.5
2018-08-11T13:44:05.672Z,30.4
2018-08-11T13:46:07.891Z,30.5
2018-08-11T13:48:05.716Z,30.5
2018-08-11T13:50:10.442Z,30.4
2018-08-11T13:52:05.103Z,30.4
2018-08-11T13:54:08.429Z,30.4
2018-08-11T13:56:07.628Z,30.5
2018-08-11T13:58:08.382Z,30.5
2018-08-11T14:00:05.195Z,30.4
2018-08-11T14:02:13.537Z,30.5
2018-08-11T14:04:08.327Z,30.6
2018-08-11T14:06:05.119Z,30.6
2018-08-11T14:08:05.848Z,30.6
2018-08-11T14:10:05.509Z,30.6
2018-08-11T14:12:07.720Z,30.7
2018-08-11T14:14:06.013Z,30.7
2018-08-11T14:16:05.199Z,30.6
2018-08-11T14:18:05.076Z,30.7
2018-08-11T14:20:08.295Z,30.9
2018-08-11T14:22:05.988Z,30.9
2018-08-11T14:24:05.671Z,31
2018-08-11T14:26:05.873Z,30.9
2018-08-11T14:28:05.616Z,30.8
2018-08-11T14:30:08.533Z,30.7
2018-08-11T14:32:05.309Z,30.7
2018-08-11T14:34:07.553Z,30.3
2018-08-11T14:36:07.776Z,30.5
2018-08-11T14:38:05.463Z,30.4
2018-08-11T14:40:07.677Z,30.3
2018-08-11T14:42:07.959Z,30.6
2018-08-11T14:44:05.682Z,30.6
2018-08-11T14:46:07.875Z,30.7
2018-08-11T14:48:05.824Z,30.7
2018-08-11T14:50:05.945Z,30.3
2018-08-11T14:52:08.179Z,30.2
2018-08-11T14:54:05.891Z,30.2
2018-08-11T14:56:05.555Z,30.3
2018-08-11T14:58:05.388Z,30.4
2018-08-11T15:00:05.143Z,30.7
2018-08-11T15:02:05.871Z,30.7
2018-08-11T15:04:05.559Z,30.8
2018-08-11T15:06:10.295Z,30.9
2018-08-11T15:08:08.531Z,30.4
2018-08-11T15:10:05.447Z,30.4
2018-08-11T15:12:05.945Z,30.6
2018-08-11T15:14:05.650Z,30.5
2018-08-11T15:16:05.410Z,30.5
2018-08-11T15:18:05.608Z,30.5
2018-08-11T15:20:07.790Z,30.4
2018-08-11T15:22:05.505Z,30.4
2018-08-11T15:24:05.460Z,30.3
2018-08-11T15:26:05.659Z,30.3
2018-08-11T15:28:06.404Z,30.3
2018-08-11T15:30:05.106Z,30.5
2018-08-11T15:32:05.405Z,30.5
2018-08-11T15:34:05.232Z,30.8
2018-08-11T15:36:05.971Z,30.9
2018-08-11T15:38:08.177Z,30.9
2018-08-11T15:40:11.057Z,30.9
2018-08-11T15:42:08.284Z,30.8
2018-08-11T15:44:05.224Z,30.8
2018-08-11T15:46:08.457Z,31
2018-08-11T15:48:05.160Z,31
2018-08-11T15:50:05.347Z,31
2018-08-11T15:52:05.063Z,30.9
2018-08-11T15:54:05.844Z,30.5
2018-08-11T15:56:05.660Z,30.2
2018-08-11T15:58:05.857Z,30
2018-08-11T16:00:05.590Z,30.1
2018-08-11T16:02:05.235Z,30
2018-08-11T16:04:05.505Z,30
2018-08-11T16:06:05.192Z,30.1
2018-08-11T16:08:05.411Z,29.9
2018-08-11T16:10:07.617Z,30.1
2018-08-11T16:12:05.287Z,30.1
2018-08-11T16:14:08.500Z,30
2018-08-11T16:16:08.346Z,29.9
2018-08-11T16:18:07.748Z,29.8
2018-08-11T16:20:06.050Z,29.7
2018-08-11T16:22:05.724Z,30
2018-08-11T16:24:05.394Z,30
2018-08-11T16:26:05.674Z,29.8
2018-08-11T16:28:05.444Z,30
2018-08-11T16:30:05.231Z,30
2018-08-11T16:32:05.982Z,29.8
2018-08-11T16:34:10.723Z,29.6
2018-08-11T16:36:05.530Z,29.7
2018-08-11T16:38:05.222Z,30
2018-08-11T16:40:05.468Z,30
2018-08-11T16:42:07.675Z,30
2018-08-11T16:44:05.350Z,30
2018-08-11T16:46:05.040Z,30
2018-08-11T16:48:05.315Z,30
2018-08-11T16:50:06.004Z,30
2018-08-11T16:52:05.669Z,30
2018-08-11T16:54:05.410Z,30
2018-08-11T16:56:05.636Z,30
2018-08-11T16:58:05.376Z,30
2018-08-11T17:00:05.048Z,30.1
2018-08-11T17:02:08.372Z,30
2018-08-11T17:04:05.123Z,30
2018-08-11T17:06:06.014Z,30
2018-08-11T17:08:05.716Z,30.1
2018-08-11T17:10:05.501Z,30
2018-08-11T17:12:05.728Z,30.2
2018-08-11T17:16:53.624Z,30.2
2018-08-11T17:18:47.260Z,30.2
2018-08-11T17:20:48.017Z,30.2
2018-08-11T17:22:18.974Z,30.3
2018-08-11T17:25:21.000Z,30.5
2018-08-11T17:26:14.519Z,30.4
2018-08-11T17:28:23.360Z,30.2
2018-08-11T17:30:17.986Z,30.4
2018-08-11T17:32:40.341Z,30.4
2018-08-11T17:34:51.656Z,30.4
2018-08-11T17:36:55.953Z,30.3
2018-08-11T17:38:56.863Z,30.2
2018-08-11T17:40:27.524Z,30.4
2018-08-11T17:42:05.267Z,30.5
2018-08-11T17:44:05.477Z,30.6
2018-08-11T17:46:08.201Z,30.6
2018-08-11T17:48:05.972Z,30.6
2018-08-11T17:50:05.640Z,30.6
2018-08-11T17:52:05.859Z,30.6
2018-08-11T17:54:05.549Z,30.6
2018-08-11T17:56:05.208Z,30.7
2018-08-11T17:58:08.491Z,30.6
2018-08-11T18:00:05.229Z,30.7
2018-08-11T18:02:05.905Z,30.7
2018-08-11T18:04:05.438Z,30.8
2018-08-11T18:06:05.134Z,30.8
2018-08-11T18:08:05.820Z,30.9
2018-08-11T18:10:05.530Z,31
2018-08-11T18:12:05.743Z,30.9
2018-08-11T18:14:05.423Z,30.9
2018-08-11T18:16:05.115Z,31.1
2018-08-11T18:18:08.534Z,31.2
2018-08-11T18:20:05.211Z,31.1
2018-08-11T18:22:05.957Z,31.1
2018-08-11T18:24:08.270Z,31.3
2018-08-11T18:26:05.523Z,31.1
2018-08-11T18:28:07.793Z,31.1
2018-08-11T18:30:08.018Z,31.1
2018-08-11T18:32:05.221Z,31.1
2018-08-11T18:34:05.929Z,31.2
2018-08-11T18:36:06.613Z,31.1
2018-08-11T18:38:05.349Z,31.2
2018-08-11T18:40:05.001Z,31.2
2018-08-11T18:42:05.668Z,31.2
2018-08-11T18:44:05.379Z,31.2
2018-08-11T18:46:05.069Z,31.3
2018-08-11T18:48:05.941Z,31.3
2018-08-11T18:50:05.617Z,31.3
2018-08-11T18:52:08.117Z,31.4
2018-08-11T18:54:05.412Z,31.4
2018-08-11T18:56:05.084Z,31.5
2018-08-11T18:58:10.943Z,31.5
2018-08-11T19:00:05.864Z,31.5
2018-08-11T19:02:05.560Z,31.5
2018-08-11T19:04:05.267Z,31.5
2018-08-11T19:06:05.183Z,31.6
2018-08-11T19:08:06.294Z,31.6
2018-08-11T19:10:08.576Z,31.7
2018-08-11T19:12:05.486Z,31.7
2018-08-11T19:14:05.418Z,31.7
2018-08-11T19:16:07.717Z,31.7
2018-08-11T19:18:05.644Z,31.6
2018-08-11T19:20:05.339Z,31.7
2018-08-11T19:22:05.145Z,31.7
2018-08-11T19:24:10.938Z,31.7
2018-08-11T19:26:05.720Z,31.8
2018-08-11T19:28:05.453Z,31.7
2018-08-11T19:30:05.170Z,31.7
2018-08-11T19:32:05.907Z,31.7
2018-08-11T19:34:05.789Z,31.8
2018-08-11T19:36:04.990Z,31.7
2018-08-11T19:38:05.743Z,31.8
2018-08-11T19:40:07.941Z,31.8
2018-08-11T19:42:05.911Z,31.8
2018-08-11T19:44:07.891Z,31.8
2018-08-11T19:46:05.627Z,31.8
2018-08-11T19:48:05.425Z,31.9
2018-08-11T19:50:05.737Z,31.9
2018-08-11T19:52:11.029Z,31.9
2018-08-11T19:54:05.791Z,31.7
2018-08-11T19:56:10.547Z,31.9
2018-08-11T19:58:05.250Z,31.7
2018-08-11T20:00:05.957Z,31.7
2018-08-11T20:02:08.210Z,31.9
2018-08-11T20:04:07.977Z,31.9
2018-08-11T20:06:08.163Z,31.9
2018-08-11T20:08:07.943Z,31.7
2018-08-11T20:10:05.624Z,31.8
2018-08-11T20:12:05.355Z,31.7
2018-08-11T20:14:05.553Z,31.9
2018-08-11T20:16:05.254Z,31.8
2018-08-11T20:18:05.195Z,31.9
2018-08-11T20:20:05.917Z,32
2018-08-11T20:22:05.593Z,32
2018-08-11T20:24:05.828Z,32.1
2018-08-11T20:26:05.611Z,32
2018-08-11T20:28:05.301Z,32.2
2018-08-11T20:30:05.566Z,32.2
2018-08-11T20:32:05.302Z,32.2
2018-08-11T20:34:05.097Z,32.3
2018-08-11T20:36:05.796Z,32.3
2018-08-11T20:38:05.487Z,32.4
2018-08-11T20:40:05.622Z,32.4
2018-08-11T20:42:07.819Z,32.5
2018-08-11T20:44:05.544Z,32.5
2018-08-11T20:46:05.537Z,32.5
2018-08-11T20:48:07.783Z,32.7
2018-08-11T20:50:05.493Z,32.7
2018-08-11T20:52:05.199Z,32.6
2018-08-11T20:54:05.987Z,32.7
2018-08-11T20:56:05.653Z,32.8
2018-08-11T20:58:05.983Z,32.8
2018-08-11T21:00:05.666Z,32.7
2018-08-11T21:02:05.142Z,32.9
2018-08-11T21:04:08.539Z,32.8
2018-08-11T21:06:05.444Z,33
2018-08-11T21:08:05.172Z,32.8
2018-08-11T21:10:05.912Z,32.8
2018-08-11T21:12:05.635Z,32.8
2018-08-11T21:14:05.321Z,32.9
2018-08-11T21:16:10.124Z,32.9
2018-08-11T21:18:05.440Z,32.9
2018-08-11T21:20:10.170Z,33
2018-08-11T21:22:08.337Z,33
2018-08-11T21:24:08.540Z,33.1
2018-08-11T21:26:06.193Z,33.1
2018-08-11T21:28:05.066Z,33.1
2018-08-11T21:30:05.522Z,33.1
2018-08-11T21:32:05.260Z,33.1
2018-08-11T21:34:06.030Z,33
2018-08-11T21:36:05.210Z,33.2
2018-08-11T21:38:06.901Z,33.2
2018-08-11T21:40:05.641Z,33.2
2018-08-11T21:42:08.073Z,33.1
2018-08-11T21:44:05.327Z,33.1
2018-08-11T21:46:05.571Z,33.1
2018-08-11T21:48:05.284Z,33.1
2018-08-11T21:50:05.138Z,33.1
2018-08-11T21:52:05.837Z,33.1
2018-08-11T21:54:07.558Z,33.2
2018-08-11T21:56:12.839Z,33.2
2018-08-11T21:58:05.498Z,33.2
2018-08-11T22:00:05.829Z,33.1
2018-08-11T22:02:05.603Z,33.2
2018-08-11T22:04:10.386Z,33.1
2018-08-11T22:06:05.178Z,33.1
2018-08-11T22:08:05.887Z,33.3
2018-08-11T22:10:05.571Z,33.2
2018-08-11T22:12:05.333Z,33.2
2018-08-11T22:14:07.794Z,33.3
2018-08-11T22:16:05.462Z,33.3
2018-08-11T22:18:06.004Z,33.2
2018-08-11T22:20:05.797Z,33.1
2018-08-11T22:22:05.496Z,33.1
2018-08-11T22:24:05.264Z,33.2
2018-08-11T22:26:06.055Z,33.2
2018-08-11T22:28:05.730Z,33.2
2018-08-11T22:30:05.401Z,33.2
2018-08-11T22:32:05.128Z,33.2
2018-08-11T22:34:05.782Z,33.3
2018-08-11T22:36:05.440Z,33.3
2018-08-11T22:38:05.256Z,33.3
2018-08-11T22:40:11.141Z,33.3
2018-08-11T22:42:05.423Z,33.3
2018-08-11T22:44:07.667Z,33.3
2018-08-11T22:46:05.524Z,33.3
2018-08-11T22:48:07.762Z,33.3
2018-08-11T22:50:08.039Z,33.4
2018-08-11T22:52:05.701Z,33.4
2018-08-11T22:54:05.396Z,33.4
2018-08-11T22:56:18.478Z,33.4
2018-08-11T22:58:05.170Z,33.4
2018-08-11T23:00:08.407Z,33.4
2018-08-11T23:02:05.058Z,33.4
2018-08-11T23:04:05.764Z,33.4
2018-08-11T23:06:05.450Z,33.4
2018-08-11T23:08:05.144Z,33.4
2018-08-11T23:10:06.846Z,33.4
2018-08-11T23:12:05.563Z,33.4
2018-08-11T23:14:07.799Z,33.5
2018-08-11T23:16:05.694Z,33.5
2018-08-11T23:18:10.629Z,33.5
2018-08-11T23:20:07.855Z,33.5
2018-08-11T23:22:08.073Z,33.5
2018-08-11T23:24:08.331Z,33.5
2018-08-11T23:26:05.060Z,33.5
2018-08-11T23:28:05.748Z,33.3
2018-08-11T23:30:05.452Z,33.5
2018-08-11T23:32:05.317Z,33.3
2018-08-11T23:34:05.020Z,33.3
2018-08-11T23:36:05.750Z,33.3
2018-08-11T23:38:05.715Z,33.4
2018-08-11T23:40:05.959Z,33.3
2018-08-11T23:42:05.697Z,33.4
2018-08-11T23:44:05.990Z,33.3
2018-08-11T23:46:05.666Z,33.4
2018-08-11T23:48:05.339Z,33.4
2018-08-11T23:50:05.095Z,33.4
2018-08-11T23:52:05.846Z,33.3
2018-08-11T23:54:05.563Z,33.3
2018-08-11T23:56:05.411Z,33.4
2018-08-11T23:58:05.178Z,33.3
